createdAt,value
2018-04-13T00:00:41.607Z,98934.89
2018-04-13T00:03:09.239Z,98934.28
2018-04-13T00:05:36.915Z,98943.14
2018-04-13T00:08:04.545Z,98944.05
2018-04-13T00:10:32.171Z,98941.84
2018-04-13T00:12:59.851Z,98939.70
2018-04-13T00:15:27.470Z,98941.73
2018-04-13T00:17:55.156Z,98948.06
2018-04-13T00:20:22.874Z,98947.38
2018-04-13T00:22:50.615Z,98946.84
2018-04-13T00:25:18.276Z,98956.40
2018-04-13T00:27:45.971Z,98953.05
2018-04-13T00:30:13.599Z,98943.88
2018-04-13T00:32:41.315Z,98956.69
2018-04-13T00:35:08.959Z,98953.67
2018-04-13T00:37:36.649Z,98955.71
2018-04-13T00:40:04.267Z,98954.60
2018-04-13T00:42:31.976Z,98960.53
2018-04-13T00:44:59.622Z,98957.37
2018-04-13T00:47:27.315Z,98961.84
2018-04-13T00:49:54.947Z,98952.00
2018-04-13T00:52:22.612Z,98958.53
2018-04-13T00:54:50.258Z,98955.38
2018-04-13T00:57:17.919Z,98953.11
2018-04-13T00:59:45.549Z,98949.67
2018-04-13T01:02:13.194Z,98945.84
2018-04-13T01:04:40.860Z,98948.91
2018-04-13T01:07:08.528Z,98950.50
2018-04-13T01:09:36.150Z,98955.79
2018-04-13T01:12:03.838Z,98950.13
2018-04-13T01:14:31.440Z,98954.90
2018-04-13T01:16:59.120Z,98955.47
2018-04-13T01:19:26.794Z,98959.30
2018-04-13T01:21:54.448Z,98964.42
2018-04-13T01:24:22.067Z,98967.77
2018-04-13T01:26:49.759Z,98969.25
2018-04-13T01:29:17.387Z,98971.69
2018-04-13T01:31:45.062Z,98967.98
2018-04-13T01:34:12.681Z,98971.05
2018-04-13T01:36:40.376Z,98961.07
2018-04-13T01:39:08.091Z,98966.77
2018-04-13T01:41:35.774Z,98967.30
2018-04-13T01:44:03.392Z,98967.78
2018-04-13T01:46:31.097Z,98962.15
2018-04-13T01:48:58.775Z,98960.49
2018-04-13T01:51:26.434Z,98959.02
2018-04-13T01:53:54.046Z,98951.56
2018-04-13T01:56:21.718Z,98958.70
2018-04-13T01:58:49.360Z,98955.91
2018-04-13T02:01:17.018Z,98955.89
2018-04-13T02:03:44.692Z,98959.48
2018-04-13T02:06:12.361Z,98961.11
2018-04-13T02:08:40.016Z,98956.08
2018-04-13T02:11:07.745Z,98959.58
2018-04-13T02:13:35.358Z,98965.39
2018-04-13T02:16:03.046Z,98955.13
2018-04-13T02:18:30.706Z,98956.35
2018-04-13T02:20:58.350Z,98953.41
2018-04-13T02:23:26.003Z,98945.59
2018-04-13T02:25:53.640Z,98955.34
2018-04-13T02:28:21.310Z,98948.14
2018-04-13T02:30:48.932Z,98947.59
2018-04-13T02:33:16.593Z,98948.15
2018-04-13T02:35:44.239Z,98949.36
2018-04-13T02:38:11.932Z,98949.57
2018-04-13T02:40:39.587Z,98950.69
2018-04-13T02:43:07.259Z,98953.41
2018-04-13T02:45:34.898Z,98951.63
2018-04-13T02:48:02.569Z,98952.53
2018-04-13T02:50:30.193Z,98951.41
2018-04-13T02:52:57.875Z,98958.38
2018-04-13T02:55:25.519Z,98959.95
2018-04-13T02:57:53.240Z,98963.57
2018-04-13T03:00:20.859Z,98966.03
2018-04-13T03:02:48.525Z,98971.89
2018-04-13T03:05:16.155Z,98975.36
2018-04-13T03:07:43.824Z,98969.66
2018-04-13T03:10:11.462Z,98967.50
2018-04-13T03:12:39.126Z,98969.16
2018-04-13T03:15:06.740Z,98979.42
2018-04-13T03:17:34.449Z,98974.98
2018-04-13T03:20:02.051Z,98980.45
2018-04-13T03:22:29.749Z,98972.75
2018-04-13T03:24:57.402Z,98975.94
2018-04-13T03:27:25.068Z,98981.52
2018-04-13T03:29:52.672Z,98984.01
2018-04-13T03:32:20.346Z,98982.36
2018-04-13T03:34:47.968Z,98977.66
2018-04-13T03:37:15.654Z,98976.70
2018-04-13T03:39:43.270Z,98978.68
2018-04-13T03:42:10.980Z,98969.12
2018-04-13T03:44:38.592Z,98973.67
2018-04-13T03:47:06.295Z,98963.03
2018-04-13T03:49:33.942Z,98969.08
2018-04-13T03:52:01.584Z,98978.70
2018-04-13T03:54:29.252Z,98985.20
2018-04-13T03:56:57.100Z,98974.80
2018-04-13T03:59:24.743Z,98984.31
2018-04-13T04:01:52.408Z,98991.31
2018-04-13T04:04:20.035Z,98995.00
2018-04-13T04:06:47.679Z,98996.28
2018-04-13T04:09:15.374Z,99004.22
2018-04-13T04:11:43.029Z,98996.56
2018-04-13T04:14:10.647Z,98999.08
2018-04-13T04:16:38.330Z,99007.38
2018-04-13T04:19:05.968Z,99004.66
2018-04-13T04:24:53.386Z,99023.52
2018-04-13T04:27:21.058Z,99019.48
2018-04-13T04:29:48.681Z,99018.69
2018-04-13T04:32:16.328Z,99032.97
2018-04-13T04:34:43.959Z,99033.61
2018-04-13T04:37:11.646Z,99037.82
2018-04-13T04:39:39.258Z,99043.75
2018-04-13T04:42:06.930Z,99043.02
2018-04-13T04:44:34.543Z,99048.14
2018-04-13T04:47:02.210Z,99046.95
2018-04-13T04:49:29.872Z,99048.97
2018-04-13T04:51:57.576Z,99049.42
2018-04-13T04:54:25.232Z,99057.39
2018-04-13T04:56:52.851Z,99059.27
2018-04-13T04:59:20.512Z,99070.75
2018-04-13T05:01:48.150Z,99063.80
2018-04-13T05:04:15.833Z,99073.97
2018-04-13T05:06:43.448Z,99068.69
2018-04-13T05:09:11.110Z,99079.98
2018-04-13T05:11:38.751Z,99079.85
2018-04-13T05:14:06.420Z,99087.27
2018-04-13T05:16:34.036Z,99080.83
2018-04-13T05:19:01.707Z,99084.73
2018-04-13T05:21:29.328Z,99082.48
2018-04-13T05:23:57.034Z,99082.64
2018-04-13T05:26:24.724Z,99086.13
2018-04-13T05:28:52.405Z,99088.34
2018-04-13T05:31:20.076Z,99090.09
2018-04-13T05:33:47.761Z,99093.21
2018-04-13T05:36:15.392Z,99097.36
2018-04-13T05:38:43.050Z,99097.54
2018-04-13T05:41:10.697Z,99091.43
2018-04-13T05:43:38.369Z,99086.77
2018-04-13T05:46:06.024Z,99099.14
2018-04-13T05:48:33.687Z,99105.41
2018-04-13T05:51:01.339Z,99102.31
2018-04-13T05:53:29.036Z,99106.72
2018-04-13T05:55:56.709Z,99099.70
2018-04-13T05:58:24.375Z,99107.84
2018-04-13T06:00:51.989Z,99104.97
2018-04-13T06:03:19.652Z,99110.83
2018-04-13T06:05:47.279Z,99105.19
2018-04-13T06:08:14.968Z,99121.03
2018-04-13T06:10:42.598Z,99118.66
2018-04-13T06:13:10.272Z,99122.67
2018-04-13T06:15:37.939Z,99120.17
2018-04-13T06:18:05.603Z,99123.95
2018-04-13T06:20:33.258Z,99124.60
2018-04-13T06:23:00.907Z,99117.39
2018-04-13T06:25:28.561Z,99124.70
2018-04-13T06:27:56.234Z,99126.05
2018-04-13T06:30:23.872Z,99123.98
2018-04-13T06:32:51.555Z,99127.84
2018-04-13T06:35:19.181Z,99138.89
2018-04-13T06:37:46.826Z,99135.75
2018-04-13T06:40:14.451Z,99138.52
2018-04-13T06:42:42.147Z,99133.64
2018-04-13T06:45:09.799Z,99133.45
2018-04-13T06:47:37.450Z,99143.25
2018-04-13T06:50:05.055Z,99150.59
2018-04-13T06:52:32.719Z,99144.48
2018-04-13T06:55:00.598Z,99150.59
2018-04-13T06:57:28.279Z,99149.41
2018-04-13T06:59:55.978Z,99153.64
2018-04-13T07:02:23.613Z,99146.34
2018-04-13T07:04:51.306Z,99146.22
2018-04-13T07:07:18.930Z,99159.27
2018-04-13T07:09:46.597Z,99163.78
2018-04-13T07:12:14.240Z,99169.00
2018-04-13T07:14:41.916Z,99169.30
2018-04-13T07:17:09.535Z,99181.98
2018-04-13T07:19:37.214Z,99176.22
2018-04-13T07:22:04.852Z,99174.66
2018-04-13T07:24:32.527Z,99182.36
2018-04-13T07:27:00.163Z,99191.77
2018-04-13T07:29:27.897Z,99188.05
2018-04-13T07:31:55.869Z,99199.85
2018-04-13T07:34:23.266Z,99205.72
2018-04-13T07:36:50.934Z,99220.32
2018-04-13T07:39:19.120Z,99235.46
2018-04-13T07:41:47.041Z,99251.28
2018-04-13T07:44:14.711Z,99256.94
2018-04-13T07:46:42.322Z,99263.98
2018-04-13T07:49:09.994Z,99276.52
2018-04-13T07:51:38.250Z,99278.73
2018-04-13T07:54:05.472Z,99284.50
2018-04-13T07:56:33.473Z,99286.61
2018-04-13T07:59:02.015Z,99293.39
2018-04-13T08:01:29.023Z,99289.59
2018-04-13T08:03:56.860Z,99297.98
2018-04-13T08:06:24.452Z,99295.13
2018-04-13T08:08:52.422Z,99296.16
2018-04-13T08:11:20.236Z,99296.42
2018-04-13T08:13:48.015Z,99305.61
2018-04-13T08:16:15.696Z,99309.63
2018-04-13T08:18:43.562Z,99315.66
2018-04-13T08:21:11.282Z,99320.24
2018-04-13T08:23:39.010Z,99321.11
2018-04-13T08:26:06.771Z,99316.73
2018-04-13T08:28:34.994Z,99325.83
2018-04-13T08:31:02.691Z,99325.83
2018-04-13T08:33:30.379Z,99333.69
2018-04-13T08:35:58.012Z,99346.66
2018-04-13T08:38:25.740Z,99355.75
2018-04-13T08:40:53.401Z,99362.04
2018-04-13T08:43:21.149Z,99368.84
2018-04-13T08:45:48.896Z,99376.52
2018-04-13T08:48:16.664Z,99381.16
2018-04-13T08:50:44.351Z,99385.44
2018-04-13T08:53:12.024Z,99397.37
2018-04-13T08:55:39.763Z,99398.52
2018-04-13T08:58:07.837Z,99392.35
2018-04-13T09:00:35.492Z,99390.55
2018-04-13T09:03:03.379Z,99395.24
2018-04-13T09:05:31.078Z,99400.45
2018-04-13T09:07:58.744Z,99401.29
2018-04-13T09:10:26.443Z,99400.13
2018-04-13T09:12:54.271Z,99399.37
2018-04-13T09:15:22.064Z,99403.70
2018-04-13T09:17:49.999Z,99407.77
2018-04-13T09:20:17.758Z,99410.38
2018-04-13T09:22:45.512Z,99427.66
2018-04-13T09:25:13.494Z,99428.42
2018-04-13T09:27:41.254Z,99433.41
2018-04-13T09:30:09.010Z,99442.69
2018-04-13T09:32:36.788Z,99439.84
2018-04-13T09:35:04.502Z,99448.93
2018-04-13T09:37:32.155Z,99450.69
2018-04-13T09:40:00.241Z,99464.06
2018-04-13T09:42:27.889Z,99467.15
2018-04-13T09:44:56.090Z,99471.16
2018-04-13T09:47:23.981Z,99463.97
2018-04-13T09:49:51.795Z,99467.70
2018-04-13T09:52:19.399Z,99467.02
2018-04-13T09:54:47.075Z,99481.78
2018-04-13T09:57:14.742Z,99480.14
2018-04-13T09:59:42.440Z,99475.67
2018-04-13T10:02:10.110Z,99484.75
2018-04-13T10:04:41.640Z,99482.25
2018-04-13T10:07:09.309Z,99481.28
2018-04-13T10:09:36.936Z,99495.63
2018-04-13T10:12:04.642Z,99491.95
2018-04-13T10:14:32.259Z,99489.17
2018-04-13T10:16:59.911Z,99490.16
2018-04-13T10:19:27.570Z,99498.91
2018-04-13T10:21:55.237Z,99498.86
2018-04-13T10:24:22.863Z,99509.45
2018-04-13T10:26:50.542Z,99518.64
2018-04-13T10:29:18.161Z,99521.31
2018-04-13T10:31:45.828Z,99529.02
2018-04-13T10:34:13.466Z,99536.19
2018-04-13T10:36:41.135Z,99535.59
2018-04-13T10:39:08.797Z,99539.55
2018-04-13T10:41:36.458Z,99545.05
2018-04-13T10:44:04.105Z,99544.55
2018-04-13T10:46:31.760Z,99547.72
2018-04-13T10:48:59.386Z,99552.58
2018-04-13T10:51:27.047Z,99555.88
2018-04-13T10:53:54.682Z,99556.69
2018-04-13T10:56:22.339Z,99564.45
2018-04-13T10:58:49.947Z,99562.20
2018-04-13T11:01:17.604Z,99570.34
2018-04-13T11:03:45.302Z,99565.41
2018-04-13T11:06:12.959Z,99579.02
2018-04-13T11:08:40.580Z,99579.94
2018-04-13T11:11:08.239Z,99590.70
2018-04-13T11:13:35.897Z,99594.59
2018-04-13T11:16:03.545Z,99600.37
2018-04-13T11:18:31.208Z,99602.91
2018-04-13T11:20:58.861Z,99604.58
2018-04-13T11:23:26.508Z,99605.58
2018-04-13T11:25:54.169Z,99602.62
2018-04-13T11:28:21.854Z,99610.80
2018-04-13T11:30:49.472Z,99613.37
2018-04-13T11:33:17.128Z,99609.70
2018-04-13T11:35:44.740Z,99615.66
2018-04-13T11:38:12.444Z,99619.70
2018-04-13T11:40:40.078Z,99631.95
2018-04-13T11:43:07.762Z,99630.81
2018-04-13T11:45:35.382Z,99633.49
2018-04-13T11:48:03.094Z,99637.06
2018-04-13T11:50:30.717Z,99636.48
2018-04-13T11:52:58.374Z,99633.64
2018-04-13T11:55:26.027Z,99634.00
2018-04-13T11:57:53.691Z,99635.96
2018-04-13T12:00:21.307Z,99638.96
2018-04-13T12:02:48.957Z,99639.97
2018-04-13T12:05:16.608Z,99659.44
2018-04-13T12:07:44.220Z,99664.99
2018-04-13T12:10:11.907Z,99668.63
2018-04-13T12:12:39.527Z,99667.02
2018-04-13T12:15:07.200Z,99681.35
2018-04-13T12:17:34.841Z,99671.91
2018-04-13T12:20:02.499Z,99672.05
2018-04-13T12:22:30.179Z,99671.11
2018-04-13T12:24:57.859Z,99679.38
2018-04-13T12:27:25.479Z,99679.80
2018-04-13T12:29:53.143Z,99690.72
2018-04-13T12:32:20.800Z,99694.73
2018-04-13T12:34:48.480Z,99694.81
2018-04-13T12:37:16.107Z,99704.09
2018-04-13T12:39:43.780Z,99701.92
2018-04-13T12:42:11.402Z,99707.97
2018-04-13T12:44:39.061Z,99722.77
2018-04-13T12:47:06.700Z,99726.03
2018-04-13T12:49:34.349Z,99725.03
2018-04-13T12:52:01.966Z,99725.42
2018-04-13T12:54:29.650Z,99729.88
2018-04-13T12:56:57.288Z,99724.76
2018-04-13T12:59:24.977Z,99729.21
2018-04-13T13:01:52.604Z,99728.80
2018-04-13T13:04:20.342Z,99731.93
2018-04-13T13:06:47.981Z,99731.34
2018-04-13T13:09:15.635Z,99729.98
2018-04-13T13:11:43.247Z,99733.02
2018-04-13T13:14:10.934Z,99737.20
2018-04-13T13:16:38.563Z,99737.69
2018-04-13T13:19:06.252Z,99746.48
2018-04-13T13:21:33.903Z,99747.77
2018-04-13T13:24:01.633Z,99752.16
2018-04-13T13:26:29.320Z,99754.34
2018-04-13T13:28:56.951Z,99753.66
2018-04-13T13:31:24.628Z,99763.86
2018-04-13T13:33:52.231Z,99762.02
2018-04-13T13:36:19.909Z,99765.94
2018-04-13T13:38:47.541Z,99763.11
2018-04-13T13:41:15.199Z,99765.93
2018-04-13T13:43:42.822Z,99768.92
2018-04-13T13:46:10.529Z,99778.79
2018-04-13T13:48:38.147Z,99774.27
2018-04-13T13:51:05.798Z,99779.70
2018-04-13T13:53:33.430Z,99785.44
2018-04-13T13:56:01.081Z,99790.52
2018-04-13T13:58:28.716Z,99791.20
2018-04-13T14:00:56.401Z,99796.50
2018-04-13T14:03:24.053Z,99799.66
2018-04-13T14:05:51.698Z,99806.02
2018-04-13T14:08:19.318Z,99814.89
2018-04-13T14:10:46.980Z,99819.59
2018-04-13T14:13:14.587Z,99821.06
2018-04-13T14:15:42.235Z,99826.89
2018-04-13T14:18:09.831Z,99827.42
2018-04-13T14:20:37.485Z,99839.77
2018-04-13T14:23:05.103Z,99839.88
2018-04-13T14:25:32.755Z,99844.82
2018-04-13T14:28:00.362Z,99849.30
2018-04-13T14:30:28.051Z,99854.75
2018-04-13T14:32:55.662Z,99861.77
2018-04-13T14:35:23.342Z,99867.62
2018-04-13T14:37:50.951Z,99871.42
2018-04-13T14:40:18.578Z,99873.33
2018-04-13T14:42:46.234Z,99874.76
2018-04-13T14:45:13.864Z,99879.27
2018-04-13T14:47:41.524Z,99875.77
2018-04-13T14:50:09.169Z,99870.58
2018-04-13T14:52:36.860Z,99876.90
2018-04-13T14:55:04.590Z,99876.81
2018-04-13T14:57:32.252Z,99877.39
2018-04-13T14:59:59.867Z,99887.86
2018-04-13T15:02:27.518Z,99892.73
2018-04-13T15:04:55.210Z,99885.59
2018-04-13T15:07:23.023Z,99887.85
2018-04-13T15:09:50.625Z,99897.80
2018-04-13T15:12:18.277Z,99897.09
2018-04-13T15:14:45.895Z,99897.34
2018-04-13T15:17:13.538Z,99893.83
2018-04-13T15:19:41.150Z,99894.78
2018-04-13T15:22:08.818Z,99908.71
2018-04-13T15:24:36.816Z,99913.39
2018-04-13T15:27:04.482Z,99914.39
2018-04-13T15:29:32.151Z,99909.84
2018-04-13T15:31:59.852Z,99917.86
2018-04-13T15:34:27.547Z,99921.14
2018-04-13T15:36:55.380Z,99925.46
2018-04-13T15:39:23.230Z,99927.44
2018-04-13T15:41:50.844Z,99918.70
2018-04-13T15:44:18.535Z,99919.84
2018-04-13T15:46:46.139Z,99923.00
2018-04-13T15:49:13.827Z,99918.58
2018-04-13T15:51:41.459Z,99918.16
2018-04-13T15:54:09.208Z,99911.03
2018-04-13T15:56:36.874Z,99908.85
2018-04-13T15:59:04.539Z,99913.77
2018-04-13T16:01:32.424Z,99920.48
2018-04-13T16:04:00.080Z,99924.83
2018-04-13T16:06:27.718Z,99922.13
2018-04-13T16:08:55.700Z,99928.06
2018-04-13T16:11:24.133Z,99932.05
2018-04-13T16:13:52.114Z,99930.70
2018-04-13T16:16:19.750Z,99932.37
2018-04-13T16:18:47.431Z,99943.28
2018-04-13T16:21:15.039Z,99943.84
2018-04-13T16:23:42.651Z,99947.89
2018-04-13T16:26:10.339Z,99945.80
2018-04-13T16:28:37.987Z,99955.05
2018-04-13T16:31:05.650Z,99952.24
2018-04-13T16:33:33.288Z,99952.33
2018-04-13T16:36:00.939Z,99952.41
2018-04-13T16:38:28.639Z,99967.00
2018-04-13T16:40:56.319Z,99966.16
2018-04-13T16:43:23.989Z,99962.87
2018-04-13T16:45:51.653Z,99976.75
2018-04-13T16:48:19.293Z,99978.11
2018-04-13T16:50:46.959Z,99984.64
2018-04-13T16:53:14.598Z,99980.19
2018-04-13T16:55:42.275Z,99982.98
2018-04-13T16:58:09.896Z,99984.97
2018-04-13T17:00:37.570Z,99988.31
2018-04-13T17:03:05.193Z,99985.88
2018-04-13T17:05:32.869Z,99991.78
2018-04-13T17:08:00.500Z,99997.77
2018-04-13T17:10:28.160Z,99999.92
2018-04-13T17:12:55.813Z,99993.00
2018-04-13T17:15:23.462Z,100000.03
2018-04-13T17:17:51.107Z,99999.70
2018-04-13T17:20:18.770Z,100006.71
2018-04-13T17:22:46.400Z,100010.22
2018-04-13T17:25:14.104Z,100012.81
2018-04-13T17:27:41.744Z,100019.67
2018-04-13T17:30:09.408Z,100021.01
2018-04-13T17:32:37.072Z,100024.94
2018-04-13T17:35:04.736Z,100024.75
2018-04-13T17:37:32.393Z,100031.09
2018-04-13T17:40:00.037Z,100032.88
2018-04-13T17:42:27.784Z,100038.28
2018-04-13T17:44:55.434Z,100040.78
2018-04-13T17:47:23.142Z,100047.95
2018-04-13T17:49:50.763Z,100045.77
2018-04-13T17:52:18.468Z,100049.98
2018-04-13T17:54:46.119Z,100053.08
2018-04-13T17:57:13.787Z,100057.64
2018-04-13T17:59:41.407Z,100063.09
2018-04-13T18:02:09.123Z,100063.38
2018-04-13T18:04:36.739Z,100068.55
2018-04-13T18:07:04.413Z,100072.37
2018-04-13T18:09:32.055Z,100075.35
2018-04-13T18:11:59.702Z,100075.53
2018-04-13T18:14:27.377Z,100083.93
2018-04-13T18:16:55.129Z,100090.53
2018-04-13T18:19:22.747Z,100100.11
2018-04-13T18:21:50.507Z,100099.06
2018-04-13T18:24:18.130Z,100103.27
2018-04-13T18:26:45.876Z,100107.52
2018-04-13T18:29:13.843Z,100105.52
2018-04-13T18:31:41.540Z,100111.81
2018-04-13T18:34:09.191Z,100115.36
2018-04-13T18:36:36.861Z,100119.18
2018-04-13T18:39:04.585Z,100122.02
2018-04-13T18:41:32.268Z,100126.56
2018-04-13T18:43:59.907Z,100127.20
2018-04-13T18:46:27.563Z,100132.23
2018-04-13T18:48:55.182Z,100135.64
2018-04-13T18:51:22.858Z,100141.84
2018-04-13T18:53:50.468Z,100141.73
2018-04-13T18:56:18.132Z,100156.16
2018-04-13T18:58:45.768Z,100152.69
2018-04-13T19:01:13.439Z,100153.64
2018-04-13T19:03:41.080Z,100160.27
2018-04-13T19:06:08.740Z,100163.23
2018-04-13T19:08:36.351Z,100167.03
2018-04-13T19:11:04.015Z,100163.28
2018-04-13T19:13:31.653Z,100173.27
2018-04-13T19:15:59.323Z,100172.20
2018-04-13T19:18:26.940Z,100180.59
2018-04-13T19:20:54.607Z,100179.53
2018-04-13T19:23:22.240Z,100186.61
2018-04-13T19:25:49.919Z,100189.45
2018-04-13T19:28:17.805Z,100192.64
2018-04-13T19:30:45.525Z,100194.54
2018-04-13T19:33:13.189Z,100199.61
2018-04-13T19:35:40.866Z,100190.30
2018-04-13T19:38:08.499Z,100202.52
2018-04-13T19:40:36.189Z,100196.22
2018-04-13T19:43:03.854Z,100204.79
2018-04-13T19:45:31.533Z,100209.29
2018-04-13T19:47:59.219Z,100203.95
2018-04-13T19:50:26.842Z,100209.71
2018-04-13T19:52:54.529Z,100212.09
2018-04-13T19:55:22.194Z,100210.60
2018-04-13T19:57:49.890Z,100216.58
2018-04-13T20:00:17.519Z,100217.48
2018-04-13T20:02:45.237Z,100215.67
2018-04-13T20:05:12.878Z,100220.09
2018-04-13T20:07:40.651Z,100222.46
2018-04-13T20:10:08.272Z,100217.95
2018-04-13T20:12:35.947Z,100223.57
2018-04-13T20:15:03.598Z,100225.81
2018-04-13T20:17:31.264Z,100226.03
2018-04-13T20:19:58.880Z,100224.78
2018-04-13T20:22:26.592Z,100224.44
2018-04-13T20:24:54.219Z,100230.75
2018-04-13T20:27:21.977Z,100233.25
2018-04-13T20:29:49.709Z,100229.81
2018-04-13T20:32:17.399Z,100231.01
2018-04-13T20:34:45.011Z,100232.27
2018-04-13T20:37:12.699Z,100237.59
2018-04-13T20:39:40.328Z,100236.19
2018-04-13T20:42:07.991Z,100243.38
2018-04-13T20:44:35.677Z,100248.08
2018-04-13T20:47:03.389Z,100252.06
2018-04-13T20:49:31.028Z,100256.50
2018-04-13T20:51:58.690Z,100253.95
2018-04-13T20:54:26.367Z,100259.22
2018-04-13T20:56:54.113Z,100254.36
2018-04-13T20:59:21.810Z,100261.98
2018-04-13T21:01:49.439Z,100254.41
2018-04-13T21:04:17.114Z,100260.58
2018-04-13T21:06:44.828Z,100257.28
2018-04-13T21:09:12.486Z,100264.02
2018-04-13T21:11:40.129Z,100267.13
2018-04-13T21:14:07.783Z,100268.39
2018-04-13T21:16:35.409Z,100274.52
2018-04-13T21:19:03.064Z,100277.33
2018-04-13T21:21:30.726Z,100276.70
2018-04-13T21:23:58.413Z,100280.87
2018-04-13T21:26:26.053Z,100284.80
2018-04-13T21:28:53.744Z,100288.62
2018-04-13T21:31:21.368Z,100278.39
2018-04-13T21:33:49.040Z,100290.23
2018-04-13T21:36:16.652Z,100292.48
2018-04-13T21:38:44.339Z,100297.64
2018-04-13T21:41:12.029Z,100302.22
2018-04-13T21:43:39.716Z,100301.16
2018-04-13T21:46:07.615Z,100296.97
2018-04-13T21:48:35.288Z,100301.73
2018-04-13T21:51:02.930Z,100302.12
2018-04-13T21:53:30.640Z,100300.88
2018-04-13T21:55:58.327Z,100300.42
2018-04-13T21:58:25.950Z,100302.03
2018-04-13T22:00:53.622Z,100300.29
2018-04-13T22:03:21.247Z,100303.29
2018-04-13T22:05:48.941Z,100306.09
2018-04-13T22:08:16.600Z,100309.94
2018-04-13T22:10:44.259Z,100307.42
2018-04-13T22:13:23.641Z,100301.23
2018-04-13T22:15:51.302Z,100306.00
2018-04-13T22:18:18.958Z,100306.92
2018-04-13T22:20:46.618Z,100314.09
2018-04-13T22:23:14.296Z,100314.06
2018-04-13T22:25:41.966Z,100310.91
2018-04-13T22:28:09.588Z,100312.47
2018-04-13T22:30:37.284Z,100318.00
2018-04-13T22:33:04.919Z,100318.63
2018-04-13T22:35:32.608Z,100321.58
2018-04-13T22:38:00.275Z,100318.48
2018-04-13T22:40:28.047Z,100331.04
2018-04-13T22:42:55.694Z,100337.91
2018-04-13T22:45:23.359Z,100334.95
2018-04-13T22:47:51.018Z,100340.20
2018-04-13T22:50:18.709Z,100343.17
2018-04-13T22:52:46.358Z,100344.55
2018-04-13T22:55:14.028Z,100350.43
2018-04-13T22:57:41.643Z,100355.00
2018-04-13T23:00:09.391Z,100362.44
2018-04-13T23:02:37.049Z,100359.08
2018-04-13T23:05:04.714Z,100359.48
2018-04-13T23:07:32.351Z,100358.64
2018-04-13T23:09:59.987Z,100353.67
2018-04-13T23:12:27.665Z,100350.23
2018-04-13T23:14:55.296Z,100348.73
2018-04-13T23:17:22.979Z,100353.55
2018-04-13T23:19:50.656Z,100346.11
2018-04-13T23:22:30.100Z,100348.54
2018-04-13T23:24:57.731Z,100351.39
2018-04-13T23:27:25.395Z,100356.95
2018-04-13T23:29:53.036Z,100350.98
2018-04-13T23:32:20.739Z,100357.81
2018-04-13T23:34:48.407Z,100363.45
2018-04-13T23:37:16.079Z,100357.34
2018-04-13T23:39:43.702Z,100359.10
2018-04-13T23:42:11.359Z,100360.55
2018-04-13T23:44:38.986Z,100359.92
2018-04-13T23:47:06.636Z,100359.88
2018-04-13T23:49:34.267Z,100351.30
2018-04-13T23:52:01.929Z,100358.48
2018-04-13T23:54:29.623Z,100346.95
2018-04-13T23:56:57.304Z,100349.83
2018-04-13T23:59:25.007Z,100356.70
